Time;durP1;ratioP1;P1;durP2;ratioP2;P2;SDS_P1;SDS_P2;PMS_P1;PMS_P2;Temp;Humidity;BMP_temperature;BMP_pressure;BME280_temperature;BME280_humidity;BME280_pressure;Samples;Min_cycle;Max_cycle;Signal;HPM_P1;HPM_P2
2023/03/25 00:02:06;;;;;;;18.60;3.63;;;;;;;9.90;100.00;99994.03;4992614;28;20027;-52
2023/03/25 00:04:33;;;;;;;19.17;3.72;;;;;;;9.77;100.00;99971.84;4992398;28;20038;-54
2023/03/25 00:07:00;;;;;;;16.73;3.60;;;;;;;9.74;100.00;99954.41;4990895;28;20053;-49
2023/03/25 00:09:25;;;;;;;14.05;3.40;;;;;;;9.90;100.00;100001.91;4992191;28;20444;-53
2023/03/25 00:11:51;;;;;;;16.40;4.45;;;;;;;9.90;100.00;99983.50;4991942;28;20121;-50
2023/03/25 00:14:16;;;;;;;14.80;4.07;;;;;;;9.88;100.00;99965.19;4986890;28;20501;-54
2023/03/25 00:16:47;;;;;;;20.33;3.67;;;;;;;9.44;100.00;99901.41;4974051;28;20026;-55
2023/03/25 00:19:15;;;;;;;14.10;3.35;;;;;;;9.74;100.00;99958.81;4991939;28;20398;-52
2023/03/25 00:21:43;;;;;;;17.98;3.92;;;;;;;9.83;100.00;99982.09;4975061;28;20085;-48
2023/03/25 00:24:11;;;;;;;17.55;3.40;;;;;;;9.40;100.00;99904.22;4992083;28;20069;-51
2023/03/25 00:26:41;;;;;;;15.35;3.17;;;;;;;9.83;100.00;99980.31;4991894;28;20485;-52
2023/03/25 00:29:07;;;;;;;11.02;3.13;;;;;;;9.78;100.00;99970.94;4990514;28;20411;-51
2023/03/25 00:31:32;;;;;;;11.65;3.35;;;;;;;9.34;100.00;99905.31;4974504;28;20039;-50
2023/03/25 00:33:58;;;;;;;13.88;4.05;;;;;;;9.78;100.00;99984.06;4991786;28;20034;-48
2023/03/25 00:36:24;;;;;;;17.02;4.38;;;;;;;9.73;100.00;99975.50;4991727;28;20042;-49
2023/03/25 00:38:49;;;;;;;18.42;3.83;;;;;;;9.78;100.00;99981.44;4990462;28;20142;-52
2023/03/25 00:41:24;;;;;;;14.18;3.45;;;;;;;9.49;100.00;99924.84;4991538;28;20397;-48
2023/03/25 00:43:52;;;;;;;16.13;3.78;;;;;;;9.77;100.00;99980.56;4991839;28;20076;-50
2023/03/25 00:46:17;;;;;;;17.15;4.30;;;;;;;9.46;100.00;99930.22;4990176;28;20093;-48
2023/03/25 00:48:43;;;;;;;18.17;3.70;;;;;;;9.61;100.00;99958.47;4993157;28;20038;-51
2023/03/25 00:51:12;;;;;;;16.67;4.07;;;;;;;9.35;100.00;99879.91;4993630;28;20119;-53
2023/03/25 00:53:38;;;;;;;16.17;3.65;;;;;;;9.53;100.00;99908.91;4993831;28;20038;-51
2023/03/25 00:56:04;;;;;;;17.85;3.90;;;;;;;9.78;100.00;99971.75;4994895;28;20037;-52
2023/03/25 00:58:29;;;;;;;23.25;4.82;;;;;;;9.69;100.00;99945.03;4977426;28;20121;-50
2023/03/25 01:00:58;;;;;;;15.10;4.55;;;;;;;9.72;100.00;99955.41;4994987;28;20138;-51
2023/03/25 01:03:27;;;;;;;21.73;5.57;;;;;;;9.73;100.00;99975.50;4993722;28;20041;-50
2023/03/25 01:05:54;;;;;;;16.13;3.80;;;;;;;9.70;100.00;99967.75;4993822;28;20034;-47
2023/03/25 01:08:24;;;;;;;18.33;3.90;;;;;;;9.46;100.00;99928.44;4994633;28;20371;-51
2023/03/25 01:10:53;;;;;;;15.13;4.90;;;;;;;9.15;100.00;99875.50;5010297;28;20030;-50
2023/03/25 01:13:19;;;;;;;17.45;4.20;;;;;;;9.12;100.00;99880.91;4977845;28;20116;-49
2023/03/25 01:15:44;;;;;;;21.83;4.13;;;;;;;9.54;100.00;99960.50;4995227;28;20429;-49
2023/03/25 01:18:10;;;;;;;16.88;3.58;;;;;;;9.50;100.00;99966.81;4993459;28;20067;-49
2023/03/25 01:20:35;;;;;;;16.45;3.72;;;;;;;8.92;100.00;99909.72;4994671;28;20037;-52
2023/03/25 01:23:01;;;;;;;17.70;3.70;;;;;;;9.28;100.00;99952.84;4993224;28;20034;-51
2023/03/25 01:25:26;;;;;;;15.88;3.25;;;;;;;9.16;100.00;99955.13;4994871;28;20038;-50
2023/03/25 01:27:51;;;;;;;17.33;3.88;;;;;;;9.07;100.00;99951.13;4994602;28;20041;-51
2023/03/25 01:30:17;;;;;;;14.13;3.95;;;;;;;8.89;100.00;99918.59;4993474;28;20030;-53
2023/03/25 01:32:42;;;;;;;15.48;3.95;;;;;;;8.92;100.00;99935.97;4994756;28;20118;-54
2023/03/25 01:35:09;;;;;;;22.70;4.47;;;;;;;8.93;100.00;99916.69;4975765;28;20072;-52
2023/03/25 01:37:37;;;;;;;23.67;4.60;;;;;;;8.73;100.00;99885.13;4994866;28;20042;-48
2023/03/25 01:40:05;;;;;;;14.80;3.58;;;;;;;9.09;100.00;99930.91;4994365;28;20031;-48
2023/03/25 01:42:30;;;;;;;22.70;5.38;;;;;;;9.12;100.00;99958.78;4994597;28;20049;-48
2023/03/25 01:45:18;;;;;;;19.42;4.40;;;;;;;9.12;100.00;99948.28;4994018;28;20469;-48
2023/03/25 01:47:44;;;;;;;18.55;4.97;;;;;;;9.15;100.00;99948.16;4993576;28;20033;-50
2023/03/25 01:50:13;;;;;;;21.85;4.28;;;;;;;9.10;100.00;99926.50;4993169;28;20042;-46
2023/03/25 01:52:41;;;;;;;22.20;4.45;;;;;;;9.09;100.00;99930.03;4994419;28;20050;-52
2023/03/25 01:55:06;;;;;;;13.80;3.60;;;;;;;9.16;100.00;99940.25;4993949;28;20121;-48
2023/03/25 01:57:32;;;;;;;21.55;4.22;;;;;;;9.18;100.00;99934.91;4976718;28;20117;-49
2023/03/25 01:59:57;;;;;;;22.98;4.63;;;;;;;9.18;100.00;99938.41;4976031;28;20498;-48
2023/03/25 02:02:33;;;;;;;21.15;4.32;;;;;;;9.22;100.00;99926.00;4993846;28;20065;-50
2023/03/25 02:05:03;;;;;;;24.55;5.22;;;;;;;9.24;100.00;99935.53;4993054;28;20050;-49
2023/03/25 02:07:32;;;;;;;17.23;5.83;;;;;;;9.26;100.00;99931.06;4976831;28;20038;-50
2023/03/25 02:10:04;;;;;;;18.17;4.10;;;;;;;9.25;100.00;99923.25;4976309;28;20113;-49
2023/03/25 02:12:29;;;;;;;18.30;3.95;;;;;;;9.27;100.00;99918.78;4976803;28;20316;-50
2023/03/25 02:14:56;;;;;;;17.48;4.18;;;;;;;9.23;100.00;99920.69;4993671;28;20118;-49
2023/03/25 02:17:32;;;;;;;20.83;5.13;;;;;;;9.31;100.00;99934.34;4976281;28;20531;-47
2023/03/25 02:20:42;;;;;;;23.00;4.57;;;;;;;9.37;100.00;99928.00;4993677;28;20128;-50
2023/03/25 02:23:56;;;;;;;20.10;5.35;;;;;;;9.41;100.00;99917.28;4876553;29;20310;-51
2023/03/25 02:26:40;;;;;;;24.63;4.82;;;;;;;9.42;100.00;99926.91;4860069;29;20047;-50
2023/03/25 02:29:18;;;;;;;21.90;4.93;;;;;;;9.44;100.00;99921.56;4965773;28;20125;-48
2023/03/25 02:32:40;;;;;;;23.73;5.07;;;;;;;9.43;100.00;99922.47;4974079;28;20118;-49
2023/03/25 02:35:28;;;;;;;23.95;5.43;;;;;;;9.15;100.00;99862.38;4894897;29;20081;-50
2023/03/25 02:38:06;;;;;;;19.83;5.43;;;;;;;9.38;100.00;99916.56;4878543;29;20049;-51
2023/03/25 02:40:54;;;;;;;29.40;5.03;;;;;;;9.46;100.00;99911.84;4933383;28;20445;-47
2023/03/25 02:43:26;;;;;;;28.30;5.68;;;;;;;9.45;100.00;99918.03;4973734;28;20148;-52
2023/03/25 02:45:52;;;;;;;;;;;;;;;9.45;100.00;99911.00;4956915;28;20077;-49
2023/03/25 02:48:52;;;;;;;26.77;5.28;;;;;;;9.44;100.00;99903.16;4956044;28;19957;-49
2023/03/25 02:51:23;;;;;;;22.38;4.72;;;;;;;9.17;100.00;99854.44;4937318;28;20090;-48
2023/03/25 02:53:50;;;;;;;25.80;6.13;;;;;;;9.41;100.00;99890.16;4972170;28;20031;-52
2023/03/25 02:56:20;;;;;;;26.85;5.50;;;;;;;9.16;100.00;99852.75;4972509;28;20031;-49
2023/03/25 02:58:45;;;;;;;28.03;5.53;;;;;;;9.39;100.00;99884.13;4973170;28;20039;-51
2023/03/25 03:01:13;;;;;;;30.60;5.93;;;;;;;9.47;100.00;99898.66;4973322;28;20056;-48
2023/03/25 03:03:39;;;;;;;25.45;5.63;;;;;;;9.22;100.00;99842.00;4973936;28;20043;-49
2023/03/25 03:06:05;;;;;;;25.88;5.72;;;;;;;9.22;100.00;99828.84;4973903;28;20038;-48
2023/03/25 03:08:42;;;;;;;27.60;5.65;;;;;;;9.53;100.00;99890.50;4989016;28;20393;-48
2023/03/25 03:11:27;;;;;;;25.58;5.80;;;;;;;9.54;100.00;99884.31;4992115;28;20038;-48
2023/03/25 03:13:59;;;;;;;25.65;5.82;;;;;;;9.53;100.00;99872.13;4991280;28;20490;-48
2023/03/25 03:16:43;;;;;;;26.13;6.15;;;;;;;9.54;100.00;99886.94;4992958;28;20105;-49
2023/03/25 03:19:26;;;;;;;34.58;6.38;;;;;;;9.54;100.00;99894.81;4992148;28;20048;-47
2023/03/25 03:22:07;;;;;;;22.80;5.35;;;;;;;9.55;100.00;99893.91;4992668;28;20049;-46
2023/03/25 03:24:36;;;;;;;21.00;4.95;;;;;;;9.48;100.00;99883.75;4991333;28;20117;-47
2023/03/25 03:27:11;;;;;;;21.05;4.57;;;;;;;9.30;100.00;99898.50;4991468;28;20030;-48
2023/03/25 03:29:43;;;;;;;23.50;5.13;;;;;;;9.32;100.00;99896.66;4991002;28;20026;-49
2023/03/25 03:32:31;;;;;;;25.85;5.15;;;;;;;8.96;100.00;99836.03;4992319;28;20524;-49
2023/03/25 03:35:06;;;;;;;22.30;6.13;;;;;;;9.17;100.00;99894.69;4992596;28;20050;-48
2023/03/25 03:37:36;;;;;;;27.77;6.85;;;;;;;9.04;100.00;99883.00;4991199;28;20034;-50
2023/03/25 03:40:05;;;;;;;28.10;6.43;;;;;;;9.06;100.00;99873.28;4975117;28;20535;-51
2023/03/25 03:42:39;;;;;;;37.22;6.35;;;;;;;9.05;100.00;99900.44;4990005;28;20453;-50
2023/03/25 03:45:07;;;;;;;26.77;5.05;;;;;;;9.00;100.00;99877.00;4990918;28;20447;-48
2023/03/25 03:47:39;;;;;;;29.05;5.70;;;;;;;9.11;100.00;99900.19;4990973;28;20026;-49
2023/03/25 03:50:09;;;;;;;32.60;5.68;;;;;;;8.93;100.00;99865.03;4991016;28;20141;-49
2023/03/25 03:52:49;;;;;;;30.65;6.60;;;;;;;8.65;100.00;99832.97;4991879;28;20043;-50
2023/03/25 03:55:20;;;;;;;30.23;6.38;;;;;;;8.58;100.00;99833.28;4990742;28;20030;-49
2023/03/25 03:57:51;;;;;;;25.42;5.22;;;;;;;8.81;100.00;99909.31;4990096;28;20504;-52
2023/03/25 04:00:17;;;;;;;34.63;8.65;;;;;;;8.77;100.00;99903.31;4990742;28;20034;-51
2023/03/25 04:02:47;;;;;;;29.92;6.70;;;;;;;8.77;100.00;99915.59;4990634;28;20081;-48
2023/03/25 04:05:15;;;;;;;23.65;5.75;;;;;;;8.72;100.00;99888.69;4990925;28;20026;-47
2023/03/25 04:07:53;;;;;;;31.05;6.88;;;;;;;8.70;100.00;99888.72;4990646;28;20030;-50
2023/03/25 04:10:38;;;;;;;28.60;6.13;;;;;;;8.70;100.00;99920.22;4990856;28;20022;-50
2023/03/25 04:13:06;;;;;;;34.50;6.05;;;;;;;8.54;100.00;99865.78;4990927;28;20030;-49
2023/03/25 04:15:32;;;;;;;26.25;5.40;;;;;;;8.44;100.00;99846.94;4989985;28;20269;-48
2023/03/25 04:17:57;;;;;;;26.23;6.47;;;;;;;8.22;100.00;99811.97;4991814;28;20136;-50
2023/03/25 04:20:24;;;;;;;23.10;5.30;;;;;;;8.26;100.00;99827.50;4974694;28;20045;-51
2023/03/25 04:22:51;;;;;;;29.83;6.78;;;;;;;8.68;100.00;99905.44;4992460;28;20030;-50
2023/03/25 04:25:17;;;;;;;30.30;5.68;;;;;;;8.21;100.00;99821.59;4995972;28;20026;-51
2023/03/25 04:27:44;;;;;;;39.40;6.93;;;;;;;8.67;100.00;99899.34;4995346;28;20105;-49
2023/03/25 04:30:10;;;;;;;30.27;7.35;;;;;;;8.64;100.00;99888.13;4992965;28;20038;-48
2023/03/25 04:32:35;;;;;;;31.25;7.75;;;;;;;8.72;100.00;99893.94;4994085;28;20474;-48
2023/03/25 04:35:02;;;;;;;32.33;6.18;;;;;;;8.73;100.00;99898.25;4995872;28;20042;-51
2023/03/25 04:37:27;;;;;;;30.20;5.70;;;;;;;8.77;100.00;99905.94;4995553;28;20037;-48
2023/03/25 04:39:54;;;;;;;22.60;5.65;;;;;;;8.81;100.00;99909.31;4995405;28;20035;-48
2023/03/25 04:42:24;;;;;;;31.42;6.68;;;;;;;8.77;100.00;99910.34;4994083;28;20030;-49
2023/03/25 04:44:50;;;;;;;29.50;6.28;;;;;;;8.83;100.00;99910.94;4994142;28;20121;-49
2023/03/25 04:47:20;;;;;;;32.90;6.72;;;;;;;8.81;100.00;99901.44;4995202;28;20045;-49
2023/03/25 04:49:46;;;;;;;34.28;6.30;;;;;;;8.40;100.00;99843.59;4993548;28;20482;-49
2023/03/25 04:52:12;;;;;;;27.58;5.95;;;;;;;8.32;100.00;99836.91;4977802;28;20066;-48
2023/03/25 04:54:38;;;;;;;29.92;7.13;;;;;;;8.65;100.00;99913.44;4977775;28;20054;-51
2023/03/25 04:57:04;;;;;;;34.22;6.30;;;;;;;8.25;100.00;99851.16;4977394;28;20496;-51
2023/03/25 04:59:30;;;;;;;24.98;5.03;;;;;;;8.28;100.00;99870.28;4995026;28;20128;-52
2023/03/25 05:01:55;;;;;;;29.17;6.60;;;;;;;8.17;100.00;99838.34;4993939;28;20165;-47
2023/03/25 05:04:23;;;;;;;26.17;6.03;;;;;;;8.61;100.00;99923.19;4961450;28;20501;-47
2023/03/25 05:06:52;;;;;;;25.80;6.13;;;;;;;8.64;100.00;99922.25;4995006;28;20149;-50
2023/03/25 05:09:20;;;;;;;31.35;6.50;;;;;;;8.58;100.00;99912.00;4977658;28;20430;-50
2023/03/25 05:11:46;;;;;;;32.50;6.00;;;;;;;8.25;100.00;99854.66;4994561;28;20030;-51
2023/03/25 05:14:14;;;;;;;33.92;6.93;;;;;;;8.18;100.00;99862.78;4994346;28;20041;-50
2023/03/25 05:16:40;;;;;;;34.10;7.20;;;;;;;8.54;100.00;99928.75;4977489;28;20033;-52
2023/03/25 05:19:06;;;;;;;25.33;5.55;;;;;;;8.32;100.00;99887.59;4993017;28;20039;-51
2023/03/25 05:21:36;;;;;;;32.35;6.18;;;;;;;8.19;100.00;99868.00;4977254;28;20042;-48
2023/03/25 05:24:03;;;;;;;32.00;7.45;;;;;;;8.63;100.00;99920.53;4994530;28;20405;-49
2023/03/25 05:26:33;;;;;;;27.98;5.50;;;;;;;8.60;100.00;99899.66;4976641;28;20382;-52
2023/03/25 05:29:14;;;;;;;29.63;5.95;;;;;;;8.40;100.00;99882.94;4994955;28;20042;-49
2023/03/25 05:31:41;;;;;;;32.15;7.22;;;;;;;8.72;100.00;99935.91;4976921;28;20210;-50
2023/03/25 05:34:07;;;;;;;24.73;5.55;;;;;;;8.40;100.00;99882.94;4974837;28;20398;-50
2023/03/25 05:36:33;;;;;;;30.50;5.80;;;;;;;8.34;100.00;99864.81;4977207;28;20129;-50
2023/03/25 05:38:58;;;;;;;29.05;7.43;;;;;;;8.80;100.00;99949.56;4976862;28;20121;-45
2023/03/25 05:41:31;;;;;;;30.17;5.65;;;;;;;8.76;100.00;99917.34;4994081;28;20412;-48
2023/03/25 05:43:59;;;;;;;33.95;7.53;;;;;;;8.83;100.00;99933.72;4977701;28;20100;-50
2023/03/25 05:46:25;;;;;;;28.02;6.07;;;;;;;8.40;100.00;99880.31;4976856;28;20030;-50
2023/03/25 05:48:51;;;;;;;30.35;6.65;;;;;;;8.78;100.00;99943.53;4975873;28;20057;-52
2023/03/25 05:51:20;;;;;;;23.55;5.28;;;;;;;8.29;100.00;99871.16;4993623;28;20082;-50
2023/03/25 05:53:48;;;;;;;28.60;5.88;;;;;;;8.59;100.00;99940.78;4994050;28;20600;-49
2023/03/25 05:56:18;;;;;;;25.13;6.47;;;;;;;8.51;100.00;99931.47;4993547;28;20038;-50
2023/03/25 05:58:44;;;;;;;28.50;6.20;;;;;;;8.51;100.00;99955.94;4994159;28;20065;-52
2023/03/25 06:01:12;;;;;;;30.80;5.80;;;;;;;8.13;100.00;99894.44;4993939;28;20045;-49
2023/03/25 06:03:38;;;;;;;24.88;5.75;;;;;;;8.36;100.00;99946.88;4994047;28;20030;-49
2023/03/25 06:06:04;;;;;;;28.42;5.78;;;;;;;8.27;100.00;99935.84;4992424;28;20408;-53
2023/03/25 06:08:30;;;;;;;27.90;5.63;;;;;;;8.19;100.00;99919.56;4992823;28;20093;-51
2023/03/25 06:10:59;;;;;;;24.20;6.32;;;;;;;8.33;100.00;99962.72;4993127;28;20058;-52
2023/03/25 06:13:25;;;;;;;26.17;5.60;;;;;;;8.29;100.00;99942.78;4976818;28;20054;-52
2023/03/25 06:15:54;;;;;;;30.52;6.78;;;;;;;8.38;100.00;99959.94;4993732;28;20493;-54
2023/03/25 06:18:23;;;;;;;27.90;5.85;;;;;;;8.41;100.00;99959.81;4993372;28;20042;-53
2023/03/25 06:20:52;;;;;;;30.90;5.57;;;;;;;8.06;100.00;99899.94;4993557;28;20036;-53
2023/03/25 06:23:21;;;;;;;30.50;5.70;;;;;;;8.41;100.00;99942.31;4992755;28;20224;-50
2023/03/25 06:25:46;;;;;;;24.80;5.45;;;;;;;8.13;100.00;99898.81;4960447;28;20127;-50
2023/03/25 06:28:12;;;;;;;25.50;5.22;;;;;;;8.56;100.00;99956.63;4993837;28;20034;-49
2023/03/25 06:30:37;;;;;;;27.70;5.18;;;;;;;8.60;100.00;99960.84;4993219;28;20043;-50
2023/03/25 06:33:04;;;;;;;23.35;5.53;;;;;;;8.29;100.00;99910.47;4993297;28;20034;-52
2023/03/25 06:35:30;;;;;;;29.42;6.43;;;;;;;8.19;100.00;99875.84;4960616;28;20441;-51
2023/03/25 06:37:55;;;;;;;22.52;4.88;;;;;;;8.37;100.00;99905.78;4992024;28;20050;-50
2023/03/25 06:40:21;;;;;;;32.38;6.00;;;;;;;8.78;100.00;99970.66;4993408;28;20092;-51
2023/03/25 06:42:46;;;;;;;26.20;5.78;;;;;;;8.83;100.00;99967.81;4993422;28;20038;-51
2023/03/25 06:45:12;;;;;;;26.23;4.80;;;;;;;8.68;100.00;99929.06;4993157;28;20118;-51
2023/03/25 06:47:38;;;;;;;22.67;5.13;;;;;;;8.53;100.00;99919.16;4993049;28;20117;-50
2023/03/25 06:50:04;;;;;;;31.50;5.38;;;;;;;9.07;100.00;99963.38;4976524;28;20117;-47
2023/03/25 06:52:29;;;;;;;20.70;4.50;;;;;;;9.09;100.00;99990.41;4991947;28;20030;-46
2023/03/25 06:54:55;;;;;;;25.10;5.10;;;;;;;9.13;100.00;99985.00;4991757;28;20109;-50
2023/03/25 06:57:20;;;;;;;23.52;5.10;;;;;;;9.18;100.00;99976.94;4991522;28;20035;-48
2023/03/25 06:59:47;;;;;;;27.85;6.05;;;;;;;8.92;100.00;99928.97;4993017;28;20177;-48
2023/03/25 07:02:13;;;;;;;24.40;4.90;;;;;;;8.95;100.00;99935.84;4992392;28;20026;-49
2023/03/25 07:04:39;;;;;;;25.70;5.00;;;;;;;9.35;100.00;99995.47;4992409;28;20030;-48
2023/03/25 07:07:04;;;;;;;23.10;4.95;;;;;;;9.36;100.00;99999.81;4992740;28;20088;-50
2023/03/25 07:09:30;;;;;;;22.73;6.30;;;;;;;9.00;100.00;99945.25;4991749;28;20046;-51
2023/03/25 07:11:55;;;;;;;18.95;5.75;;;;;;;9.38;100.00;99996.22;4992786;28;20034;-52
2023/03/25 07:14:20;;;;;;;27.40;5.72;;;;;;;9.36;100.00;99994.56;4992666;28;20062;-48
2023/03/25 07:16:46;;;;;;;23.20;5.45;;;;;;;9.46;100.00;100019.53;4992519;28;20049;-50
2023/03/25 07:19:11;;;;;;;32.40;4.88;;;;;;;9.21;100.00;99959.28;4992493;28;20176;-49
2023/03/25 07:21:36;;;;;;;24.10;5.60;;;;;;;9.58;100.00;100021.66;4992365;28;20037;-49
2023/03/25 07:24:02;;;;;;;34.63;6.00;;;;;;;9.57;100.00;100014.72;4992218;28;20049;-52
2023/03/25 07:26:27;;;;;;;22.83;5.05;;;;;;;9.49;100.00;99995.75;4991320;28;20054;-52
2023/03/25 07:28:52;;;;;;;24.20;5.97;;;;;;;9.62;100.00;100012.75;4992380;28;20030;-49
2023/03/25 07:31:18;;;;;;;20.52;5.80;;;;;;;9.63;100.00;100011.84;4990918;28;20042;-50
2023/03/25 07:33:43;;;;;;;23.05;4.90;;;;;;;9.67;100.00;100013.41;4992326;28;20080;-53
2023/03/25 07:36:10;;;;;;;26.65;5.00;;;;;;;9.30;100.00;99948.41;4992270;28;20040;-53
2023/03/25 07:38:36;;;;;;;23.42;6.03;;;;;;;9.70;100.00;100007.16;4992439;28;20125;-50
2023/03/25 07:41:06;;;;;;;29.50;4.88;;;;;;;9.56;100.00;99979.69;4991891;28;20114;-51
2023/03/25 07:43:31;;;;;;;20.73;5.45;;;;;;;9.77;100.00;100011.25;4990160;28;20050;-51
2023/03/25 07:45:57;;;;;;;24.15;5.53;;;;;;;9.85;100.00;100022.28;4990977;28;20034;-52
2023/03/25 07:48:23;;;;;;;24.67;5.07;;;;;;;9.92;100.00;100014.09;4992144;28;20041;-49
2023/03/25 07:50:50;;;;;;;23.10;5.40;;;;;;;9.36;100.00;99939.41;4991876;28;20038;-49
2023/03/25 07:53:15;;;;;;;20.73;5.05;;;;;;;9.94;100.00;100024.53;4975051;28;20038;-54
2023/03/25 07:55:41;;;;;;;25.23;5.72;;;;;;;9.93;100.00;100020.19;4991840;28;20045;-51
2023/03/25 07:58:06;;;;;;;23.92;5.53;;;;;;;9.90;100.00;100036.94;4993536;28;20038;-53
2023/03/25 08:00:32;;;;;;;23.20;4.85;;;;;;;9.56;100.00;99977.06;4994986;28;20034;-50
2023/03/25 08:02:57;;;;;;;23.33;4.70;;;;;;;9.99;100.00;100020.78;4994986;28;20110;-49
2023/03/25 08:05:22;;;;;;;23.42;5.50;;;;;;;9.65;100.00;99988.09;4995921;28;20038;-50
2023/03/25 08:07:51;;;;;;;22.23;5.50;;;;;;;10.06;100.00;100040.66;4978898;28;20542;-53
2023/03/25 08:10:17;;;;;;;19.50;4.57;;;;;;;9.71;100.00;99974.72;4996084;28;20089;-54
2023/03/25 08:12:43;;;;;;;19.30;4.68;;;;;;;10.11;100.00;100062.34;4978491;28;20035;-48
2023/03/25 08:15:10;;;;;;;18.10;5.10;;;;;;;10.16;100.00;100047.25;4977519;28;20409;-50
2023/03/25 08:17:36;;;;;;;17.90;4.38;;;;;;;10.11;100.00;100007.09;4995851;28;20042;-50
2023/03/25 08:20:03;;;;;;;23.27;4.95;;;;;;;10.10;100.00;99992.25;4962518;28;20100;-53
2023/03/25 08:22:29;;;;;;;21.50;4.72;;;;;;;10.61;100.00;100054.03;4978112;28;20034;-54
2023/03/25 08:24:54;;;;;;;23.02;5.28;;;;;;;10.68;100.00;100035.25;4995905;28;20098;-54
2023/03/25 08:27:20;;;;;;;15.95;4.32;;;;;;;10.85;100.00;100070.50;4995582;28;20035;-51
2023/03/25 08:29:53;;;;;;;24.58;5.03;;;;;;;10.53;100.00;99985.97;4961993;28;20117;-51
2023/03/25 08:32:21;;;;;;;17.13;5.43;;;;;;;10.97;100.00;100054.16;4995001;28;20049;-50
2023/03/25 08:34:47;;;;;;;18.67;4.50;;;;;;;10.92;100.00;100064.88;4978136;28;20406;-53
2023/03/25 08:37:14;;;;;;;20.35;5.55;;;;;;;10.51;100.00;100013.25;4995811;28;20034;-50
2023/03/25 08:39:40;;;;;;;21.30;4.47;;;;;;;10.80;100.00;100046.19;4995625;28;20034;-55
2023/03/25 08:42:10;;;;;;;22.30;5.07;;;;;;;10.77;100.00;100028.72;4995655;28;20402;-50
2023/03/25 08:44:35;;;;;;;21.25;4.95;;;;;;;10.98;100.00;100040.91;4978026;28;20114;-56
2023/03/25 08:47:01;;;;;;;24.50;6.10;;;;;;;11.02;100.00;99991.56;4976608;28;20474;-49
2023/03/25 08:49:26;;;;;;;20.20;5.47;;;;;;;11.36;100.00;100018.00;4994949;28;20551;-50
2023/03/25 08:51:52;;;;;;;21.95;4.82;;;;;;;10.41;100.00;99875.19;4994654;28;20510;-50
2023/03/25 08:54:17;;;;;;;22.90;5.80;;;;;;;11.35;100.00;100013.69;4977985;28;20038;-53
2023/03/25 08:56:42;;;;;;;25.38;4.68;;;;;;;11.72;100.00;100086.56;4994837;28;20044;-54
2023/03/25 08:59:08;;;;;;;26.73;6.18;;;;;;;11.60;100.00;100087.13;4977503;28;20045;-50
2023/03/25 09:01:33;;;;;;;22.38;5.53;;;;;;;11.57;100.00;100074.09;4993512;28;20034;-52
2023/03/25 09:03:59;;;;;;;21.35;5.55;;;;;;;11.70;100.00;100081.34;5001637;28;20034;-53
2023/03/25 09:06:24;;;;;;;25.63;7.45;;;;;;;11.79;100.00;100082.72;4994829;28;20042;-54
2023/03/25 09:08:51;;;;;;;26.38;5.57;;;;;;;11.79;100.00;100058.97;4977575;28;20075;-55
2023/03/25 09:11:16;;;;;;;21.90;5.88;;;;;;;11.63;100.00;100089.59;4977339;28;20034;-55
2023/03/25 09:13:42;;;;;;;23.40;6.15;;;;;;;11.58;100.00;100110.94;4995431;28;20458;-52
2023/03/25 09:16:08;;;;;;;21.33;5.13;;;;;;;11.10;100.00;100037.69;4993709;28;20192;-50
2023/03/25 09:18:35;;;;;;;25.90;6.85;;;;;;;11.40;100.00;100066.16;4994868;28;20038;-52
2023/03/25 09:21:01;;;;;;;23.88;5.22;;;;;;;11.41;100.00;100100.34;4977829;28;20062;-52
2023/03/25 09:23:27;;;;;;;22.60;5.30;;;;;;;11.46;100.00;100093.06;4994642;28;20042;-56
2023/03/25 09:25:52;;;;;;;20.67;5.40;;;;;;;11.41;100.00;100102.97;4994859;28;20035;-51
2023/03/25 09:28:17;;;;;;;19.63;5.07;;;;;;;11.46;100.00;100106.25;4975676;28;20034;-55
2023/03/25 09:30:43;;;;;;;26.25;5.90;;;;;;;10.99;100.00;100021.53;4976936;28;20037;-53
2023/03/25 09:33:08;;;;;;;19.63;5.28;;;;;;;11.53;100.00;100085.72;4975991;28;20120;-56
2023/03/25 09:35:33;;;;;;;22.38;5.60;;;;;;;11.45;100.00;100035.16;4976904;28;20093;-56
2023/03/25 09:37:59;;;;;;;23.55;4.95;;;;;;;12.01;100.00;100090.38;4994281;28;20042;-50
2023/03/25 09:40:24;;;;;;;25.77;6.65;;;;;;;11.82;100.00;100043.84;4960780;28;20053;-53
2023/03/25 09:43:13;;;;;;;20.83;5.25;;;;;;;12.12;100.00;100109.16;4993831;28;20034;-51
2023/03/25 09:45:48;;;;;;;29.58;6.03;;;;;;;12.12;100.00;100093.34;4980115;28;20061;-48
2023/03/25 09:48:35;;;;;;;24.58;5.07;;;;;;;12.16;100.00;100119.50;4977836;28;20041;-51
2023/03/25 09:51:13;;;;;;;26.83;5.88;;;;;;;12.33;100.00;100100.19;4985482;28;20050;-53
2023/03/25 09:53:58;;;;;;;17.92;5.20;;;;;;;12.88;100.00;100121.91;4993396;28;20445;-53
2023/03/25 09:56:27;;;;;;;27.42;5.57;;;;;;;13.46;100.00;100111.72;4993353;28;20470;-55
2023/03/25 09:59:00;;;;;;;22.02;6.35;;;;;;;13.53;100.00;100097.22;4994737;28;20038;-55
2023/03/25 10:01:31;;;;;;;24.25;5.15;;;;;;;13.94;100.00;100130.13;4993060;28;20504;-53
2023/03/25 10:04:35;;;;;;;25.02;5.05;;;;;;;13.76;100.00;100162.91;4989996;28;20049;-48
2023/03/25 10:07:25;;;;;;;22.80;6.22;;;;;;;13.78;100.00;100152.22;4981957;28;20026;-51
2023/03/25 10:09:56;;;;;;;24.08;6.05;;;;;;;13.36;100.00;100155.47;4993241;28;20033;-50
2023/03/25 10:12:41;;;;;;;30.63;5.88;;;;;;;12.96;100.00;100152.25;4992271;28;20125;-53
2023/03/25 10:15:12;;;;;;;21.08;6.35;;;;;;;12.65;100.00;100153.94;4992710;28;20105;-54
2023/03/25 10:17:56;;;;;;;22.10;6.38;;;;;;;12.43;100.00;100119.03;4993864;28;20049;-47
2023/03/25 10:20:45;;;;;;;25.23;5.88;;;;;;;12.40;100.00;100146.44;4992313;28;20352;-48
2023/03/25 10:23:29;;;;;;;23.52;5.97;;;;;;;12.53;100.00;100144.88;4990696;28;20066;-51
2023/03/25 10:25:59;;;;;;;29.08;7.18;;;;;;;12.30;100.00;100098.56;4992459;28;20037;-53
2023/03/25 10:28:31;;;;;;;25.75;5.63;;;;;;;12.23;100.00;100109.50;4992321;28;20030;-51
2023/03/25 10:30:58;;;;;;;31.50;5.55;;;;;;;12.37;100.00;100136.88;4992030;28;20510;-49
2023/03/25 10:33:55;;;;;;;22.13;5.28;;;;;;;12.43;100.00;100152.41;4992793;28;20112;-49
2023/03/25 10:36:30;;;;;;;23.60;6.10;;;;;;;12.49;100.00;100164.47;4989105;28;20042;-50
2023/03/25 10:39:00;;;;;;;24.27;5.32;;;;;;;12.71;100.00;100159.78;4993162;28;20034;-53
2023/03/25 10:41:29;;;;;;;24.77;5.45;;;;;;;12.82;100.00;100114.31;4990832;28;20406;-51
2023/03/25 10:43:55;;;;;;;23.35;5.53;;;;;;;13.25;100.00;100163.94;4992495;28;20026;-49
2023/03/25 10:46:49;;;;;;;22.42;5.50;;;;;;;13.15;100.00;100156.63;4993485;28;20085;-47
2023/03/25 10:49:17;;;;;;;21.95;5.60;;;;;;;12.88;100.00;100125.41;4989904;28;20050;-52
2023/03/25 10:51:43;;;;;;;22.80;5.30;;;;;;;12.49;100.00;100076.50;4992748;28;20046;-53
2023/03/25 10:54:12;;;;;;;23.52;5.68;;;;;;;12.74;100.00;100188.66;4992064;28;20041;-52
2023/03/25 10:56:44;;;;;;;17.20;5.30;;;;;;;12.79;100.00;100177.84;4975394;28;20050;-48
2023/03/25 10:59:28;;;;;;;26.92;5.95;;;;;;;12.84;100.00;100154.72;4975742;28;20096;-52
2023/03/25 11:01:55;;;;;;;24.70;5.63;;;;;;;12.92;100.00;100147.25;4975905;28;20371;-50
2023/03/25 11:04:21;;;;;;;18.35;5.47;;;;;;;13.08;100.00;100179.00;4975360;28;20044;-54
2023/03/25 11:06:56;;;;;;;19.58;4.63;;;;;;;13.09;100.00;100154.28;4975464;28;20030;-48
2023/03/25 11:09:27;;;;;;;21.48;5.50;;;;;;;13.67;100.00;100146.69;4975309;28;20448;-50
2023/03/25 11:11:53;;;;;;;23.73;6.13;;;;;;;14.05;100.00;100185.06;4991439;28;20038;-55
2023/03/25 11:14:26;;;;;;;23.88;5.75;;;;;;;13.88;100.00;100178.09;4992601;28;20061;-53
2023/03/25 11:17:16;;;;;;;25.33;5.65;;;;;;;13.65;100.00;100182.94;4993176;28;20093;-54
2023/03/25 11:19:49;;;;;;;25.13;6.10;;;;;;;13.65;100.00;100186.44;4975945;28;20089;-51
2023/03/25 11:22:21;;;;;;;22.40;5.00;;;;;;;13.74;100.00;100182.44;4975786;28;20026;-55
2023/03/25 11:24:53;;;;;;;24.55;6.00;;;;;;;13.82;100.00;100127.31;4992793;28;20026;-54
2023/03/25 11:27:22;;;;;;;14.65;4.40;;;;;;;15.20;100.00;100196.75;4992918;28;20069;-53
2023/03/25 11:29:58;;;;;;;18.80;5.35;;;;;;;15.35;100.00;100147.22;4974499;28;20034;-50
2023/03/25 11:32:32;;;;;;;20.52;5.65;;;;;;;15.11;100.00;100173.47;4991943;28;20038;-49